createdAt,value
2018-07-27T00:00:05.142Z,8.20
2018-07-27T00:02:35.640Z,9.00
2018-07-27T00:05:03.981Z,9.00
2018-07-27T00:07:32.551Z,9.80
2018-07-27T00:10:01.090Z,8.20
2018-07-27T00:12:30.539Z,7.00
2018-07-27T00:14:58.329Z,8.20
2018-07-27T00:17:27.311Z,9.40
2018-07-27T00:19:55.496Z,9.00
2018-07-27T00:22:23.189Z,8.60
2018-07-27T00:24:51.598Z,7.00
2018-07-27T00:27:19.597Z,7.00
2018-07-27T00:29:49.178Z,7.80
2018-07-27T00:32:18.209Z,10.60
2018-07-27T00:34:47.295Z,9.60
2018-07-27T00:37:18.340Z,8.60
2018-07-27T00:39:46.037Z,9.40
2018-07-27T00:42:14.432Z,8.60
2018-07-27T00:44:43.429Z,9.60
2018-07-27T00:47:13.636Z,7.40
2018-07-27T00:49:43.131Z,9.00
2018-07-27T00:52:10.833Z,9.60
2018-07-27T00:54:38.510Z,9.60
2018-07-27T00:57:06.373Z,7.80
2018-07-27T00:59:34.389Z,9.40
2018-07-27T01:02:03.366Z,8.80
2018-07-27T01:04:31.761Z,9.00
2018-07-27T01:06:59.453Z,10.00
2018-07-27T01:09:28.397Z,9.80
2018-07-27T01:11:56.380Z,9.00
2018-07-27T01:14:24.777Z,9.60
2018-07-27T01:16:52.924Z,9.40
2018-07-27T01:19:20.600Z,9.20
2018-07-27T01:21:48.275Z,8.00
2018-07-27T01:24:15.968Z,9.60
2018-07-27T01:26:46.741Z,9.00
2018-07-27T01:29:14.425Z,9.20
2018-07-27T01:31:42.127Z,8.00
2018-07-27T01:34:09.897Z,9.40
2018-07-27T01:36:37.934Z,9.00
2018-07-27T01:39:05.648Z,9.00
2018-07-27T01:41:33.334Z,10.40
2018-07-27T01:44:01.077Z,10.40
2018-07-27T01:46:29.072Z,9.00
2018-07-27T01:48:56.729Z,9.00
2018-07-27T01:51:24.397Z,9.00
2018-07-27T01:53:52.377Z,7.60
2018-07-27T01:56:20.063Z,11.20
2018-07-27T01:58:47.774Z,11.40
2018-07-27T02:01:15.497Z,9.00
2018-07-27T02:03:43.599Z,9.20
2018-07-27T02:06:11.297Z,8.00
2018-07-27T02:08:39.824Z,9.20
2018-07-27T02:11:08.413Z,10.00
2018-07-27T02:13:41.269Z,8.60
2018-07-27T02:16:10.313Z,6.80
2018-07-27T02:18:38.754Z,10.00
2018-07-27T02:21:06.433Z,14.80
2018-07-27T02:23:34.700Z,11.00
2018-07-27T02:26:02.449Z,11.00
2018-07-27T02:28:31.081Z,10.40
2018-07-27T02:30:59.943Z,12.60
2018-07-27T02:33:27.714Z,11.40
2018-07-27T02:35:55.440Z,10.00
2018-07-27T02:38:23.771Z,11.80
2018-07-27T02:40:51.873Z,10.80
2018-07-27T02:43:19.615Z,10.60
2018-07-27T02:45:47.288Z,11.20
2018-07-27T02:48:14.981Z,8.40
2018-07-27T02:50:42.970Z,12.00
2018-07-27T02:53:10.701Z,9.00
2018-07-27T02:55:38.425Z,10.60
2018-07-27T02:58:06.141Z,9.40
2018-07-27T03:00:34.148Z,11.00
2018-07-27T03:03:03.493Z,13.80
2018-07-27T03:05:31.165Z,11.00
2018-07-27T03:07:58.864Z,11.20
2018-07-27T03:10:26.814Z,14.60
2018-07-27T03:12:54.522Z,13.60
2018-07-27T03:15:22.245Z,14.20
2018-07-27T03:17:49.910Z,12.20
2018-07-27T03:20:17.881Z,14.80
2018-07-27T03:22:45.617Z,14.40
2018-07-27T03:25:14.137Z,14.20
2018-07-27T03:27:41.869Z,12.40
2018-07-27T03:30:09.837Z,15.40
2018-07-27T03:32:37.524Z,16.60
2018-07-27T03:35:05.240Z,17.00
2018-07-27T03:37:32.912Z,17.60
2018-07-27T03:40:00.890Z,14.60
2018-07-27T03:42:28.605Z,15.80
2018-07-27T03:44:56.905Z,16.40
2018-07-27T03:47:25.861Z,17.00
2018-07-27T03:49:53.568Z,15.60
2018-07-27T03:52:22.401Z,17.80
2018-07-27T03:54:51.157Z,15.80
2018-07-27T03:57:18.853Z,17.60
2018-07-27T03:59:46.546Z,17.00
2018-07-27T04:02:14.272Z,15.40
2018-07-27T04:04:42.442Z,15.20
2018-07-27T04:07:10.182Z,15.60
2018-07-27T04:09:37.913Z,16.40
2018-07-27T04:12:05.625Z,20.00
2018-07-27T04:14:33.597Z,16.60
2018-07-27T04:17:01.345Z,15.20
2018-07-27T04:19:29.545Z,20.20
2018-07-27T04:21:58.332Z,17.00
2018-07-27T04:24:26.026Z,17.20
2018-07-27T04:26:53.721Z,20.00
2018-07-27T04:29:21.708Z,16.40
2018-07-27T04:31:49.730Z,18.00
2018-07-27T04:34:17.452Z,17.60
2018-07-27T04:36:45.141Z,8.00
2018-07-27T04:39:13.460Z,20.00
2018-07-27T04:41:41.181Z,18.80
2018-07-27T04:44:09.953Z,19.40
2018-07-27T04:46:37.978Z,17.40
2018-07-27T04:49:06.402Z,22.40
2018-07-27T04:51:34.093Z,20.20
2018-07-27T04:54:01.778Z,22.20
2018-07-27T04:56:29.487Z,18.60
2018-07-27T04:58:57.594Z,21.00
2018-07-27T05:01:25.286Z,18.60
2018-07-27T05:03:52.973Z,19.60
2018-07-27T05:06:21.906Z,20.40
2018-07-27T05:08:54.475Z,18.80
2018-07-27T05:11:22.381Z,21.20
2018-07-27T05:13:50.458Z,19.40
2018-07-27T05:16:18.129Z,19.40
2018-07-27T05:18:45.805Z,20.00
2018-07-27T05:21:13.778Z,21.80
2018-07-27T05:23:41.482Z,20.00
2018-07-27T05:26:10.358Z,20.00
2018-07-27T05:28:38.451Z,20.40
2018-07-27T05:31:06.117Z,21.00
2018-07-27T05:33:33.809Z,18.20
2018-07-27T05:36:01.810Z,17.00
2018-07-27T05:38:29.500Z,17.60
2018-07-27T05:40:57.201Z,17.80
2018-07-27T05:43:25.318Z,18.40
2018-07-27T05:45:53.012Z,19.60
2018-07-27T05:48:20.708Z,17.60
2018-07-27T05:50:48.725Z,17.60
2018-07-27T05:53:16.494Z,15.60
2018-07-27T05:55:44.235Z,14.00
2018-07-27T05:58:12.200Z,17.60
2018-07-27T06:00:39.876Z,16.20
2018-07-27T06:03:07.576Z,15.40
2018-07-27T06:05:35.652Z,18.40
2018-07-27T06:08:03.328Z,18.40
2018-07-27T06:10:31.015Z,16.60
2018-07-27T06:12:58.989Z,18.60
2018-07-27T06:15:26.650Z,19.80
2018-07-27T06:17:54.361Z,15.00
2018-07-27T06:20:22.369Z,16.00
2018-07-27T06:22:50.077Z,18.60
2018-07-27T06:25:18.368Z,19.00
2018-07-27T06:27:46.357Z,15.80
2018-07-27T06:30:14.108Z,17.80
2018-07-27T06:32:41.791Z,16.80
2018-07-27T06:35:09.818Z,17.00
2018-07-27T06:37:37.559Z,18.00
2018-07-27T06:40:05.272Z,16.20
2018-07-27T06:42:33.492Z,17.80
2018-07-27T06:45:01.184Z,18.60
2018-07-27T06:47:29.605Z,17.20
2018-07-27T06:49:57.571Z,18.80
2018-07-27T06:52:25.336Z,16.20
2018-07-27T06:54:53.198Z,19.40
2018-07-27T06:57:21.163Z,16.20
2018-07-27T06:59:48.845Z,16.00
2018-07-27T07:02:16.548Z,15.60
2018-07-27T07:04:44.543Z,18.00
2018-07-27T07:07:12.287Z,17.60
2018-07-27T07:09:41.018Z,16.60
2018-07-27T07:12:08.992Z,15.80
2018-07-27T07:14:36.738Z,18.40
2018-07-27T07:17:05.042Z,15.00
2018-07-27T07:19:33.052Z,13.40
2018-07-27T07:22:00.775Z,18.00
2018-07-27T07:24:28.452Z,16.20
2018-07-27T07:26:56.465Z,17.00
2018-07-27T07:29:24.732Z,16.80
2018-07-27T07:31:52.428Z,17.80
2018-07-27T07:34:20.428Z,14.20
2018-07-27T07:36:48.137Z,16.20
2018-07-27T07:39:15.862Z,15.20
2018-07-27T07:41:43.920Z,17.00
2018-07-27T07:44:11.637Z,16.00
2018-07-27T07:46:40.537Z,15.60
2018-07-27T07:49:09.308Z,16.00
2018-07-27T07:51:38.826Z,17.00
2018-07-27T07:54:06.540Z,15.80
2018-07-27T07:56:34.995Z,14.80
2018-07-27T07:59:03.258Z,15.00
2018-07-27T08:01:31.576Z,15.00
2018-07-27T08:03:59.525Z,14.60
2018-07-27T08:06:28.013Z,14.80
2018-07-27T08:08:57.752Z,13.60
2018-07-27T08:11:27.133Z,12.80
2018-07-27T08:13:54.828Z,14.20
2018-07-27T08:16:23.823Z,12.40
2018-07-27T08:18:51.788Z,14.80
2018-07-27T08:21:20.836Z,13.40
2018-07-27T08:23:49.717Z,16.00
2018-07-27T08:26:17.732Z,16.00
2018-07-27T08:28:45.790Z,14.60
2018-07-27T08:31:13.492Z,12.80
2018-07-27T08:33:41.480Z,17.40
2018-07-27T08:36:09.181Z,14.80
2018-07-27T08:38:37.945Z,15.00
2018-07-27T08:41:06.000Z,13.40
2018-07-27T08:43:33.665Z,11.20
2018-07-27T08:46:01.356Z,13.00
2018-07-27T08:48:29.422Z,10.60
2018-07-27T08:50:58.389Z,12.20
2018-07-27T08:53:27.017Z,15.40
2018-07-27T08:55:54.976Z,11.00
2018-07-27T08:58:22.640Z,12.60
2018-07-27T09:00:56.748Z,12.20
2018-07-27T09:03:24.767Z,11.00
2018-07-27T09:05:52.563Z,12.00
2018-07-27T09:08:20.970Z,12.60
2018-07-27T09:10:49.497Z,14.20
2018-07-27T09:13:18.493Z,12.80
2018-07-27T09:15:47.495Z,9.40
2018-07-27T09:18:16.344Z,11.60
2018-07-27T09:20:44.097Z,13.20
2018-07-27T09:23:11.934Z,10.20
2018-07-27T09:25:39.688Z,12.60
2018-07-27T09:28:08.308Z,14.20
2018-07-27T09:30:36.699Z,13.40
2018-07-27T09:33:06.076Z,13.20
2018-07-27T09:35:35.201Z,16.00
2018-07-27T09:38:03.471Z,16.00
2018-07-27T09:40:31.352Z,14.00
2018-07-27T09:43:00.867Z,16.40
2018-07-27T09:45:30.349Z,14.20
2018-07-27T09:47:58.021Z,14.80
2018-07-27T09:50:25.697Z,16.60
2018-07-27T09:52:54.501Z,14.00
2018-07-27T09:55:25.816Z,15.80
2018-07-27T09:57:53.611Z,13.60
2018-07-27T10:00:26.745Z,12.00
2018-07-27T10:02:55.536Z,13.60
2018-07-27T10:05:23.278Z,13.40
2018-07-27T10:07:52.994Z,12.60
2018-07-27T10:10:20.680Z,11.00
2018-07-27T10:12:48.684Z,13.60
2018-07-27T10:15:19.215Z,10.60
2018-07-27T10:17:47.723Z,7.40
2018-07-27T10:20:16.017Z,10.00
2018-07-27T10:22:43.975Z,9.20
2018-07-27T10:25:12.476Z,10.00
2018-07-27T10:27:40.984Z,8.80
2018-07-27T10:30:09.081Z,8.00
2018-07-27T10:32:38.565Z,10.80
2018-07-27T10:35:08.425Z,10.60
2018-07-27T10:37:37.160Z,10.60
2018-07-27T10:40:04.909Z,9.60
2018-07-27T10:42:33.368Z,9.00
2018-07-27T10:45:03.356Z,9.20
2018-07-27T10:47:31.064Z,9.40
2018-07-27T10:49:58.737Z,9.00
2018-07-27T10:52:27.385Z,8.20
2018-07-27T10:54:55.092Z,8.80
2018-07-27T10:57:23.366Z,9.80
2018-07-27T10:59:51.583Z,9.00
2018-07-27T11:02:20.282Z,7.60
2018-07-27T11:04:48.209Z,7.40
2018-07-27T11:07:17.341Z,6.00
2018-07-27T11:09:45.675Z,6.60
2018-07-27T11:12:18.281Z,6.20
2018-07-27T11:14:46.340Z,8.00
2018-07-27T11:17:15.004Z,8.60
2018-07-27T11:19:42.772Z,8.00
2018-07-27T11:22:11.541Z,6.40
2018-07-27T11:24:40.796Z,7.80
2018-07-27T11:27:08.650Z,8.00
2018-07-27T11:29:36.640Z,8.00
2018-07-27T11:32:04.341Z,9.00
2018-07-27T11:34:33.666Z,8.00
2018-07-27T11:37:01.661Z,9.40
2018-07-27T11:39:30.545Z,6.00
2018-07-27T11:41:58.250Z,8.80
2018-07-27T11:44:26.200Z,8.20
2018-07-27T11:46:56.817Z,7.00
2018-07-27T11:49:24.544Z,8.00
2018-07-27T11:51:53.676Z,7.80
2018-07-27T11:54:22.539Z,8.00
2018-07-27T11:56:51.812Z,9.60
2018-07-27T11:59:20.424Z,7.80
2018-07-27T12:01:48.111Z,8.00
2018-07-27T12:04:15.903Z,7.00
2018-07-27T12:06:44.491Z,9.20
2018-07-27T12:09:12.841Z,9.00
2018-07-27T12:11:41.227Z,8.60
2018-07-27T12:14:09.440Z,8.60
2018-07-27T12:16:37.029Z,9.00
2018-07-27T12:19:04.742Z,8.60
2018-07-27T12:21:32.827Z,8.00
2018-07-27T12:24:00.838Z,8.60
2018-07-27T12:26:28.558Z,9.00
2018-07-27T12:28:56.581Z,9.00
2018-07-27T12:31:24.345Z,9.00
2018-07-27T12:33:52.402Z,10.20
2018-07-27T12:36:20.398Z,10.00
2018-07-27T12:38:48.212Z,5.60
2018-07-27T12:41:15.909Z,6.80
2018-07-27T12:43:43.872Z,8.40
2018-07-27T12:46:11.706Z,9.20
2018-07-27T12:48:40.004Z,7.60
2018-07-27T12:51:07.965Z,8.20
2018-07-27T12:53:35.644Z,7.80
2018-07-27T12:56:03.331Z,9.00
2018-07-27T12:58:31.282Z,8.20
2018-07-27T13:01:00.044Z,10.00
2018-07-27T13:03:28.941Z,9.20
2018-07-27T13:06:00.442Z,8.00
2018-07-27T13:08:28.378Z,5.20
2018-07-27T13:10:56.145Z,8.00
2018-07-27T13:13:24.536Z,10.80
2018-07-27T13:15:52.228Z,9.00
2018-07-27T13:18:19.942Z,8.00
2018-07-27T13:20:50.668Z,9.20
2018-07-27T13:23:18.782Z,10.40
2018-07-27T13:25:46.713Z,10.80
2018-07-27T13:28:14.861Z,10.00
2018-07-27T13:30:42.558Z,9.40
2018-07-27T13:33:12.722Z,10.00
2018-07-27T13:38:09.195Z,8.80
2018-07-27T13:40:37.981Z,10.40
2018-07-27T13:43:06.142Z,9.40
2018-07-27T13:45:33.881Z,9.40
2018-07-27T13:48:02.576Z,11.60
2018-07-27T13:50:30.742Z,9.40
2018-07-27T13:52:58.484Z,10.00
2018-07-27T13:55:30.547Z,9.80
2018-07-27T13:57:58.635Z,9.40
2018-07-27T14:00:27.278Z,10.80
2018-07-27T14:02:58.402Z,9.00
2018-07-27T14:05:27.839Z,9.60
2018-07-27T14:07:56.249Z,8.20
2018-07-27T14:10:25.705Z,8.00
2018-07-27T14:12:56.781Z,9.80
2018-07-27T14:15:32.205Z,11.00
2018-07-27T14:17:59.961Z,11.40
2018-07-27T14:20:31.578Z,8.20
2018-07-27T14:23:02.336Z,11.20
2018-07-27T14:25:30.072Z,8.80
2018-07-27T14:27:58.223Z,10.40
2018-07-27T14:30:26.010Z,8.80
2018-07-27T14:32:53.725Z,9.00
2018-07-27T14:35:21.784Z,9.20
2018-07-27T14:37:49.490Z,9.00
2018-07-27T14:40:17.180Z,8.80
2018-07-27T14:42:47.096Z,9.20
2018-07-27T14:45:14.846Z,10.00
2018-07-27T14:47:42.855Z,10.00
2018-07-27T14:50:11.929Z,10.80
2018-07-27T14:52:39.736Z,11.00
2018-07-27T14:55:07.435Z,11.60
2018-07-27T14:57:35.652Z,11.20
2018-07-27T15:00:06.568Z,10.20
2018-07-27T15:02:34.260Z,10.20
2018-07-27T15:05:02.465Z,10.80
2018-07-27T15:07:32.085Z,11.60
2018-07-27T15:10:00.477Z,11.20
2018-07-27T15:12:29.616Z,11.00
2018-07-27T15:14:57.309Z,12.20
2018-07-27T15:17:26.509Z,12.00
2018-07-27T15:19:54.691Z,11.00
2018-07-27T15:22:22.383Z,10.20
2018-07-27T15:24:50.282Z,10.80
2018-07-27T15:27:19.200Z,13.20
2018-07-27T15:29:47.492Z,16.60
2018-07-27T15:32:16.436Z,12.80
2018-07-27T15:34:46.727Z,17.80
2018-07-27T15:37:15.568Z,14.40
2018-07-27T15:39:44.482Z,15.60
2018-07-27T15:42:12.213Z,13.20
2018-07-27T15:44:40.989Z,13.80
2018-07-27T15:47:10.320Z,14.40
2018-07-27T15:49:38.536Z,10.60
2018-07-27T15:52:07.408Z,13.40
2018-07-27T15:54:36.155Z,15.00
2018-07-27T15:57:04.345Z,13.40
2018-07-27T15:59:33.598Z,54.40
2018-07-27T16:02:01.708Z,32.00
2018-07-27T16:04:29.405Z,24.00
2018-07-27T16:07:01.450Z,16.00
2018-07-27T16:09:30.613Z,17.60
2018-07-27T16:11:59.271Z,15.60
2018-07-27T16:14:29.427Z,13.00
2018-07-27T16:16:58.361Z,14.00
2018-07-27T16:19:28.522Z,12.20
2018-07-27T16:21:57.531Z,14.40
2018-07-27T16:24:26.494Z,13.40
2018-07-27T16:26:54.237Z,16.00
2018-07-27T16:29:22.005Z,12.00
2018-07-27T16:31:50.029Z,18.20
2018-07-27T16:34:18.590Z,16.00
2018-07-27T16:36:48.948Z,16.40
2018-07-27T16:39:18.632Z,13.40
2018-07-27T16:41:46.661Z,14.00
2018-07-27T16:44:15.188Z,15.00
2018-07-27T16:46:43.672Z,14.60
2018-07-27T16:49:11.370Z,14.20
2018-07-27T16:51:39.109Z,12.20
2018-07-27T16:54:07.168Z,13.40
2018-07-27T16:56:34.887Z,12.80
2018-07-27T16:59:02.589Z,13.40
2018-07-27T17:01:30.560Z,16.80
2018-07-27T17:03:59.002Z,15.60
2018-07-27T17:06:27.677Z,15.00
2018-07-27T17:08:56.749Z,16.20
2018-07-27T17:11:24.670Z,13.80
2018-07-27T17:13:53.063Z,16.00
2018-07-27T17:16:22.333Z,13.40
2018-07-27T17:18:50.905Z,15.60
2018-07-27T17:21:18.725Z,12.40
2018-07-27T17:23:47.901Z,14.40
2018-07-27T17:26:16.237Z,16.60
2018-07-27T17:28:47.479Z,16.40
2018-07-27T17:31:15.672Z,17.00
2018-07-27T17:33:43.346Z,14.40
2018-07-27T17:36:11.727Z,15.60
2018-07-27T17:38:39.833Z,14.00
2018-07-27T17:41:08.176Z,14.00
2018-07-27T17:43:36.653Z,14.40
2018-07-27T17:46:04.718Z,17.80
2018-07-27T17:48:33.589Z,16.80
2018-07-27T17:51:02.485Z,15.00
2018-07-27T17:53:30.564Z,16.00
2018-07-27T17:56:00.239Z,20.00
2018-07-27T17:58:28.661Z,17.20
2018-07-27T18:00:56.797Z,16.60
2018-07-27T18:03:30.699Z,17.20
2018-07-27T18:05:58.410Z,17.80
2018-07-27T18:08:26.518Z,16.00
2018-07-27T18:10:54.218Z,17.00
2018-07-27T18:13:21.957Z,16.00
2018-07-27T18:15:50.131Z,13.20
2018-07-27T18:18:19.096Z,15.00
2018-07-27T18:20:46.916Z,15.40
2018-07-27T18:23:16.388Z,18.40
2018-07-27T18:25:44.110Z,17.00
2018-07-27T18:28:12.516Z,16.00
2018-07-27T18:30:40.641Z,17.80
2018-07-27T18:33:08.556Z,12.20
2018-07-27T18:35:38.499Z,15.40
2018-07-27T18:38:07.639Z,12.40
2018-07-27T18:40:39.379Z,14.80
2018-07-27T18:43:08.482Z,15.40
2018-07-27T18:45:39.888Z,13.00
2018-07-27T18:48:08.595Z,16.20
2018-07-27T18:50:36.263Z,12.00
2018-07-27T18:53:04.241Z,12.80
2018-07-27T18:55:31.941Z,14.80
2018-07-27T18:57:59.663Z,14.00
2018-07-27T19:00:28.478Z,13.20
2018-07-27T19:02:57.668Z,14.20
2018-07-27T19:05:25.402Z,14.20
2018-07-27T19:07:54.419Z,14.00
2018-07-27T19:10:22.972Z,14.00
2018-07-27T19:12:50.717Z,12.00
2018-07-27T19:15:19.397Z,13.00
2018-07-27T19:17:47.210Z,13.60
2018-07-27T19:20:14.931Z,13.60
2018-07-27T19:22:43.045Z,14.40
2018-07-27T19:25:11.291Z,18.00
2018-07-27T19:27:39.641Z,29.40
2018-07-27T19:30:08.702Z,28.60
2018-07-27T19:32:37.596Z,29.20
2018-07-27T19:35:06.982Z,22.80
2018-07-27T19:37:34.956Z,22.40
2018-07-27T19:40:02.655Z,25.40
2018-07-27T19:42:32.934Z,33.20
2018-07-27T19:45:02.098Z,29.60
2018-07-27T19:47:29.821Z,24.00
2018-07-27T19:49:57.521Z,26.80
2018-07-27T19:52:26.466Z,20.40
2018-07-27T19:54:54.322Z,15.40
2018-07-27T19:57:22.799Z,13.60
2018-07-27T19:59:50.884Z,14.00
2018-07-27T20:02:19.214Z,19.00
2018-07-27T20:04:48.071Z,16.60
2018-07-27T20:07:17.035Z,16.20
2018-07-27T20:09:44.716Z,17.00
2018-07-27T20:12:12.385Z,15.40
2018-07-27T20:14:40.357Z,15.80
2018-07-27T20:17:08.713Z,17.00
2018-07-27T20:19:38.524Z,12.40
2018-07-27T20:22:06.629Z,17.00
2018-07-27T20:24:39.467Z,17.00
2018-07-27T20:27:07.223Z,15.60
2018-07-27T20:29:34.966Z,15.40
2018-07-27T20:32:02.709Z,16.60
2018-07-27T20:34:31.305Z,17.00
2018-07-27T20:37:09.526Z,16.00
2018-07-27T20:39:37.220Z,16.00
2018-07-27T20:42:05.250Z,16.00
2018-07-27T20:44:32.968Z,15.00
2018-07-27T20:47:01.269Z,16.60
2018-07-27T20:49:29.213Z,15.80
2018-07-27T20:52:01.217Z,18.20
2018-07-27T20:54:28.937Z,15.40
2018-07-27T20:56:57.274Z,16.80
2018-07-27T20:59:25.004Z,16.00
2018-07-27T21:01:53.345Z,15.40
2018-07-27T21:04:21.307Z,17.40
2018-07-27T21:06:49.020Z,18.00
2018-07-27T21:09:17.416Z,19.00
2018-07-27T21:11:47.021Z,14.00
2018-07-27T21:14:14.704Z,15.00
2018-07-27T21:16:42.364Z,17.40
2018-07-27T21:19:10.833Z,16.20
2018-07-27T21:21:38.523Z,13.20
2018-07-27T21:24:06.248Z,13.80
2018-07-27T21:26:35.643Z,15.80
2018-07-27T21:29:03.366Z,17.80
2018-07-27T21:31:31.092Z,15.00
2018-07-27T21:33:59.076Z,14.20
2018-07-27T21:36:27.771Z,16.40
2018-07-27T21:38:55.520Z,18.00
2018-07-27T21:41:23.552Z,16.60
2018-07-27T21:43:58.557Z,14.60
2018-07-27T21:46:26.534Z,18.00
2018-07-27T21:48:56.042Z,14.40
2018-07-27T21:54:01.391Z,15.80
2018-07-27T21:56:29.948Z,14.20
2018-07-27T21:59:00.848Z,17.60
2018-07-27T22:01:30.443Z,14.80
2018-07-27T22:03:58.124Z,14.80
2018-07-27T22:06:25.845Z,14.40
2018-07-27T22:08:55.325Z,16.20
2018-07-27T22:11:24.285Z,18.20
2018-07-27T22:13:53.493Z,15.20
2018-07-27T22:16:22.485Z,17.00
2018-07-27T22:18:51.729Z,17.00
2018-07-27T22:21:21.865Z,16.40
2018-07-27T22:23:54.602Z,16.00
2018-07-27T22:26:23.108Z,15.40
2018-07-27T22:28:51.420Z,17.40
2018-07-27T22:31:20.259Z,15.80
2018-07-27T22:33:48.633Z,18.80
2018-07-27T22:36:17.902Z,17.00
2018-07-27T22:38:47.398Z,18.00
2018-07-27T22:41:16.607Z,16.80
2018-07-27T22:43:46.625Z,20.60
2018-07-27T22:46:14.732Z,20.20
2018-07-27T22:48:43.270Z,15.40
2018-07-27T22:51:11.755Z,18.20
2018-07-27T22:53:40.360Z,16.80
2018-07-27T22:56:12.755Z,15.20
2018-07-27T22:58:41.394Z,16.80
2018-07-27T23:01:09.421Z,15.80
2018-07-27T23:03:37.270Z,16.60
2018-07-27T23:06:06.888Z,16.20
2018-07-27T23:08:37.277Z,17.00
2018-07-27T23:11:12.589Z,17.80
2018-07-27T23:13:41.726Z,18.40
2018-07-27T23:16:11.800Z,16.20
2018-07-27T23:18:42.779Z,19.00
2018-07-27T23:21:13.553Z,19.80
2018-07-27T23:23:42.179Z,17.20
2018-07-27T23:26:10.580Z,16.00
2018-07-27T23:28:42.122Z,16.00
2018-07-27T23:31:12.485Z,16.00
2018-07-27T23:33:43.076Z,20.40
2018-07-27T23:36:11.758Z,19.40
2018-07-27T23:38:40.672Z,18.40
2018-07-27T23:41:08.610Z,16.60
2018-07-27T23:43:36.589Z,16.80
2018-07-27T23:46:05.384Z,16.80
2018-07-27T23:48:36.436Z,19.20
2018-07-27T23:51:05.508Z,18.60
2018-07-27T23:53:33.688Z,22.00
2018-07-27T23:56:03.314Z,20.20
2018-07-27T23:58:33.556Z,16.60
